createdAt,value
2022-12-27T00:00:10.584Z,111.88
2022-12-27T00:03:05.908Z,106.10
2022-12-27T00:05:33.713Z,106.25
2022-12-27T00:08:01.935Z,110.47
2022-12-27T00:10:29.738Z,106.45
2022-12-27T00:12:58.564Z,106.93
2022-12-27T00:15:26.893Z,112.38
2022-12-27T00:17:55.964Z,105.95
2022-12-27T00:20:24.222Z,104.18
2022-12-27T00:22:52.233Z,116.50
2022-12-27T00:25:19.924Z,120.15
2022-12-27T00:27:48.085Z,105.95
2022-12-27T00:30:15.796Z,104.85
2022-12-27T00:32:45.115Z,108.78
2022-12-27T00:35:12.906Z,105.68
2022-12-27T00:37:42.135Z,103.38
2022-12-27T00:40:10.700Z,109.50
2022-12-27T00:42:40.075Z,103.20
2022-12-27T00:45:08.409Z,100.47
2022-12-27T00:47:36.526Z,116.85
2022-12-27T00:50:05.060Z,109.05
2022-12-27T00:52:34.196Z,99.97
2022-12-27T00:55:01.916Z,112.43
2022-12-27T00:57:30.000Z,107.97
2022-12-27T00:59:57.756Z,96.82
2022-12-27T01:02:26.327Z,102.38
2022-12-27T01:04:55.203Z,103.85
2022-12-27T01:07:24.404Z,117.53
2022-12-27T01:09:52.096Z,105.78
2022-12-27T01:12:20.197Z,110.97
2022-12-27T01:14:47.963Z,104.70
2022-12-27T01:17:16.224Z,123.45
2022-12-27T01:19:43.946Z,96.78
2022-12-27T01:22:12.272Z,111.30
2022-12-27T01:24:40.045Z,104.40
2022-12-27T01:27:08.141Z,103.95
2022-12-27T01:29:35.906Z,110.35
2022-12-27T01:32:04.801Z,112.90
2022-12-27T01:34:32.658Z,109.95
2022-12-27T01:37:01.030Z,101.13
2022-12-27T01:39:28.838Z,106.88
2022-12-27T01:42:15.330Z,103.53
2022-12-27T01:44:53.088Z,109.63
2022-12-27T01:47:36.297Z,111.43
2022-12-27T01:50:19.697Z,108.25
2022-12-27T01:53:12.544Z,109.10
2022-12-27T01:55:43.327Z,118.93
2022-12-27T01:58:14.580Z,115.40
2022-12-27T02:00:45.027Z,109.28
2022-12-27T02:03:20.468Z,112.15
2022-12-27T02:05:49.359Z,110.63
2022-12-27T02:08:29.286Z,111.47
2022-12-27T02:10:58.857Z,101.15
2022-12-27T02:13:32.134Z,106.47
2022-12-27T02:15:59.973Z,114.07
2022-12-27T02:18:28.335Z,108.28
2022-12-27T02:21:27.796Z,106.65
2022-12-27T02:24:18.956Z,100.53
2022-12-27T02:26:52.344Z,104.88
2022-12-27T02:29:55.857Z,109.88
2022-12-27T02:32:36.844Z,101.53
2022-12-27T02:35:32.316Z,105.30
2022-12-27T02:38:10.916Z,105.70
2022-12-27T02:41:01.052Z,107.32
2022-12-27T02:43:47.570Z,101.63
2022-12-27T02:46:47.508Z,105.82
2022-12-27T02:49:50.605Z,101.63
2022-12-27T02:53:06.044Z,104.45
2022-12-27T02:56:22.715Z,99.70
2022-12-27T02:59:16.093Z,110.40
2022-12-27T03:02:24.121Z,107.35
2022-12-27T03:05:19.843Z,98.30
2022-12-27T03:08:24.095Z,102.65
2022-12-27T03:11:17.864Z,108.38
2022-12-27T03:14:26.012Z,103.25
2022-12-27T03:17:01.281Z,107.28
2022-12-27T03:19:51.357Z,98.50
2022-12-27T03:22:42.137Z,101.65
2022-12-27T03:25:29.429Z,95.25
2022-12-27T03:28:29.332Z,98.88
2022-12-27T03:31:31.403Z,100.95
2022-12-27T03:34:27.342Z,104.50
2022-12-27T03:37:16.392Z,99.82
2022-12-27T03:40:09.686Z,99.65
2022-12-27T03:43:06.539Z,106.30
2022-12-27T03:46:15.566Z,123.25
2022-12-27T03:48:52.018Z,93.20
2022-12-27T03:51:23.029Z,92.30
2022-12-27T03:53:55.286Z,99.93
2022-12-27T03:56:24.023Z,107.43
2022-12-27T03:58:52.944Z,97.53
2022-12-27T04:01:21.149Z,97.93
2022-12-27T04:03:48.952Z,94.32
2022-12-27T04:06:17.044Z,98.78
2022-12-27T04:09:03.983Z,107.22
2022-12-27T04:11:50.631Z,105.10
2022-12-27T04:14:37.032Z,99.90
2022-12-27T04:17:23.988Z,105.75
2022-12-27T04:20:10.697Z,101.97
2022-12-27T04:22:58.412Z,96.18
2022-12-27T04:25:44.955Z,101.63
2022-12-27T04:28:33.461Z,98.43
2022-12-27T04:31:20.238Z,103.65
2022-12-27T04:34:08.452Z,101.00
2022-12-27T04:36:36.889Z,96.28
2022-12-27T04:39:05.052Z,106.82
2022-12-27T04:41:51.390Z,98.97
2022-12-27T04:44:38.333Z,98.35
2022-12-27T04:47:24.763Z,103.40
2022-12-27T04:50:11.620Z,111.28
2022-12-27T04:52:58.583Z,106.55
2022-12-27T04:55:29.452Z,91.55
2022-12-27T04:57:58.337Z,97.85
2022-12-27T05:00:49.236Z,105.20
2022-12-27T05:03:20.502Z,100.70
2022-12-27T05:05:52.659Z,97.07
2022-12-27T05:08:39.821Z,100.50
2022-12-27T05:11:27.186Z,92.38
2022-12-27T05:14:01.234Z,91.15
2022-12-27T05:16:35.537Z,90.57
2022-12-27T05:19:04.852Z,90.32
2022-12-27T05:21:37.375Z,95.47
2022-12-27T05:24:24.412Z,80.40
2022-12-27T05:26:56.783Z,87.82
2022-12-27T05:29:24.588Z,91.60
2022-12-27T05:31:52.751Z,94.78
2022-12-27T05:34:20.567Z,96.00
2022-12-27T05:36:48.633Z,91.22
2022-12-27T05:39:16.391Z,98.90
2022-12-27T05:41:44.645Z,92.15
2022-12-27T05:44:12.541Z,120.22
2022-12-27T05:46:40.861Z,102.35
2022-12-27T05:49:08.692Z,94.38
2022-12-27T05:51:37.254Z,97.95
2022-12-27T05:54:05.324Z,142.52
2022-12-27T05:56:37.493Z,89.65
2022-12-27T05:59:05.852Z,90.38
2022-12-27T06:01:34.597Z,105.75
2022-12-27T06:04:02.841Z,88.70
2022-12-27T06:06:31.533Z,90.28
2022-12-27T06:08:59.341Z,90.20
2022-12-27T06:11:27.482Z,91.28
2022-12-27T06:13:56.502Z,82.95
2022-12-27T06:16:25.177Z,84.65
2022-12-27T06:18:53.536Z,80.85
2022-12-27T06:21:23.262Z,68.32
2022-12-27T06:23:51.055Z,61.33
2022-12-27T06:26:23.719Z,55.45
2022-12-27T06:28:53.032Z,56.20
2022-12-27T06:31:22.040Z,61.35
2022-12-27T06:33:51.491Z,58.03
2022-12-27T06:36:24.492Z,58.42
2022-12-27T06:38:52.347Z,53.83
2022-12-27T06:41:20.430Z,48.50
2022-12-27T06:43:49.243Z,46.30
2022-12-27T06:46:18.760Z,42.63
2022-12-27T06:48:47.721Z,49.28
2022-12-27T06:51:17.563Z,43.88
2022-12-27T06:53:49.982Z,44.92
2022-12-27T06:56:22.857Z,51.45
2022-12-27T06:58:51.325Z,48.42
2022-12-27T07:01:25.378Z,44.92
2022-12-27T07:03:59.198Z,50.70
2022-12-27T07:06:31.202Z,47.53
2022-12-27T07:09:01.078Z,56.60
2022-12-27T07:11:34.120Z,45.38
2022-12-27T07:14:02.442Z,46.17
2022-12-27T07:16:32.200Z,45.65
2022-12-27T07:19:00.394Z,50.00
2022-12-27T07:21:30.737Z,52.58
2022-12-27T07:23:58.701Z,47.95
2022-12-27T07:26:30.692Z,55.55
2022-12-27T07:29:01.290Z,62.00
2022-12-27T07:31:33.290Z,51.13
2022-12-27T07:34:04.800Z,47.08
2022-12-27T07:36:38.816Z,67.85
2022-12-27T07:39:08.388Z,54.28
2022-12-27T07:41:37.377Z,47.28
2022-12-27T07:44:06.368Z,54.63
2022-12-27T07:46:34.724Z,54.05
2022-12-27T07:49:02.694Z,54.42
2022-12-27T07:51:32.123Z,41.83
2022-12-27T07:53:59.916Z,51.00
2022-12-27T07:56:29.202Z,57.72
2022-12-27T07:58:59.674Z,60.63
2022-12-27T08:01:55.328Z,54.53
2022-12-27T08:04:23.510Z,60.10
2022-12-27T08:06:51.615Z,69.85
2022-12-27T08:09:27.172Z,64.78
2022-12-27T08:11:56.287Z,69.35
2022-12-27T08:14:24.003Z,60.78
2022-12-27T08:16:52.901Z,85.35
2022-12-27T08:19:20.703Z,62.15
2022-12-27T08:21:49.872Z,76.15
2022-12-27T08:24:17.634Z,85.22
2022-12-27T08:26:47.774Z,94.85
2022-12-27T08:29:15.577Z,73.68
2022-12-27T08:31:43.721Z,77.82
2022-12-27T08:34:11.505Z,69.18
2022-12-27T08:36:56.177Z,83.30
2022-12-27T08:39:24.643Z,76.53
2022-12-27T08:41:54.425Z,94.07
2022-12-27T08:44:23.188Z,90.50
2022-12-27T08:46:52.799Z,95.95
2022-12-27T08:49:20.813Z,83.13
2022-12-27T08:51:48.997Z,111.00
2022-12-27T08:54:17.115Z,98.57
2022-12-27T08:56:45.264Z,115.05
2022-12-27T08:59:13.208Z,116.03
2022-12-27T09:01:41.609Z,118.88
2022-12-27T09:04:09.603Z,105.22
2022-12-27T09:06:40.978Z,107.78
2022-12-27T09:09:08.773Z,144.98
2022-12-27T09:11:37.095Z,105.53
2022-12-27T09:14:06.210Z,107.78
2022-12-27T09:16:36.000Z,107.32
2022-12-27T09:19:04.575Z,98.25
2022-12-27T09:21:34.244Z,106.03
2022-12-27T09:24:03.427Z,106.15
2022-12-27T09:26:32.566Z,95.18
2022-12-27T09:29:00.794Z,91.53
2022-12-27T09:31:30.409Z,108.20
2022-12-27T09:33:59.521Z,105.18
2022-12-27T09:36:29.911Z,100.53
2022-12-27T09:38:59.049Z,107.97
2022-12-27T09:44:54.737Z,89.38
2022-12-27T09:47:31.516Z,82.32
2022-12-27T09:50:10.539Z,95.47
2022-12-27T09:53:17.707Z,78.53
2022-12-27T09:55:49.557Z,87.45
2022-12-27T09:58:29.599Z,79.93
2022-12-27T10:00:57.378Z,81.85
2022-12-27T10:03:27.975Z,82.20
2022-12-27T10:06:41.407Z,78.05
2022-12-27T10:12:15.306Z,79.93
2022-12-27T10:15:23.676Z,79.53
2022-12-27T10:18:03.024Z,69.05
2022-12-27T10:20:53.680Z,77.50
2022-12-27T10:23:26.932Z,77.10
2022-12-27T10:26:06.509Z,78.05
2022-12-27T10:28:50.329Z,91.25
2022-12-27T10:31:24.100Z,87.53
2022-12-27T10:33:52.874Z,78.80
2022-12-27T10:36:30.791Z,83.25
2022-12-27T10:38:58.684Z,87.85
2022-12-27T10:41:39.330Z,78.97
2022-12-27T10:44:12.076Z,75.55
2022-12-27T10:46:43.727Z,73.70
2022-12-27T10:49:26.306Z,80.65
2022-12-27T10:51:59.493Z,71.10
2022-12-27T10:54:30.576Z,78.15
2022-12-27T10:57:38.072Z,73.90
2022-12-27T11:00:18.208Z,88.07
2022-12-27T11:02:52.859Z,78.10
2022-12-27T11:05:27.648Z,85.88
2022-12-27T11:07:56.799Z,74.80
2022-12-27T11:10:31.555Z,72.68
2022-12-27T11:12:59.948Z,83.03
2022-12-27T11:15:30.530Z,79.47
2022-12-27T11:18:20.797Z,76.32
2022-12-27T11:20:58.129Z,84.53
2022-12-27T11:23:36.007Z,74.22
2022-12-27T11:26:06.762Z,87.63
2022-12-27T11:28:38.506Z,78.40
2022-12-27T11:31:19.359Z,79.95
2022-12-27T11:33:53.139Z,76.18
2022-12-27T11:36:40.988Z,82.78
2022-12-27T11:39:43.672Z,89.28
2022-12-27T11:42:38.669Z,78.57
2022-12-27T11:45:12.927Z,78.13
2022-12-27T11:48:02.381Z,89.88
2022-12-27T11:50:30.708Z,85.78
2022-12-27T11:53:19.629Z,78.63
2022-12-27T11:56:21.984Z,71.68
2022-12-27T11:59:02.703Z,92.60
2022-12-27T12:02:15.011Z,70.60
2022-12-27T12:05:35.290Z,85.07
2022-12-27T12:08:34.654Z,78.88
2022-12-27T12:11:24.115Z,79.72
2022-12-27T12:14:28.365Z,74.60
2022-12-27T12:17:03.152Z,78.90
2022-12-27T12:20:01.411Z,80.43
2022-12-27T12:22:34.797Z,80.72
2022-12-27T12:25:40.711Z,78.00
2022-12-27T12:29:01.199Z,72.35
2022-12-27T12:31:47.384Z,79.68
2022-12-27T12:34:54.018Z,81.72
2022-12-27T12:37:34.288Z,68.07
2022-12-27T12:40:20.840Z,81.32
2022-12-27T12:43:01.820Z,84.10
2022-12-27T12:45:39.057Z,80.90
2022-12-27T12:48:35.802Z,80.53
2022-12-27T12:51:12.574Z,81.97
2022-12-27T12:54:05.436Z,80.03
2022-12-27T12:56:46.151Z,72.22
2022-12-27T12:59:14.619Z,81.97
2022-12-27T13:02:12.736Z,72.90
2022-12-27T13:05:02.139Z,76.30
2022-12-27T13:07:41.646Z,76.57
2022-12-27T13:11:00.533Z,82.68
2022-12-27T13:14:05.821Z,70.32
2022-12-27T13:17:04.793Z,77.40
2022-12-27T13:19:50.461Z,78.18
2022-12-27T13:22:46.080Z,89.53
2022-12-27T13:25:19.850Z,72.68
2022-12-27T13:28:15.858Z,80.47
2022-12-27T13:30:54.144Z,79.28
2022-12-27T13:33:35.421Z,81.93
2022-12-27T13:36:27.020Z,85.10
2022-12-27T13:38:58.346Z,80.65
2022-12-27T13:41:38.386Z,85.78
2022-12-27T13:44:12.490Z,90.25
2022-12-27T13:47:21.098Z,84.30
2022-12-27T13:49:57.686Z,88.00
2022-12-27T13:52:59.453Z,84.72
2022-12-27T13:55:38.087Z,86.90
2022-12-27T13:58:18.689Z,86.68
2022-12-27T14:01:13.279Z,84.57
2022-12-27T14:06:23.045Z,76.45
2022-12-27T14:09:15.753Z,72.00
2022-12-27T14:11:44.014Z,74.88
2022-12-27T14:14:17.446Z,83.70
2022-12-27T14:17:02.199Z,85.03
2022-12-27T14:19:30.161Z,69.03
2022-12-27T14:22:20.901Z,72.57
2022-12-27T14:25:06.596Z,82.47
2022-12-27T14:28:11.591Z,87.85
2022-12-27T14:31:10.397Z,86.05
2022-12-27T14:34:16.870Z,74.18
2022-12-27T14:37:09.136Z,87.97
2022-12-27T14:40:29.905Z,82.40
2022-12-27T14:43:34.532Z,84.15
2022-12-27T14:46:24.053Z,84.47
2022-12-27T14:49:25.456Z,94.25
2022-12-27T14:52:19.429Z,73.38
2022-12-27T14:55:08.752Z,75.25
2022-12-27T14:57:36.913Z,89.40
2022-12-27T15:00:13.504Z,79.80
2022-12-27T15:03:00.845Z,83.63
2022-12-27T15:05:41.077Z,82.60
2022-12-27T15:08:27.619Z,81.47
2022-12-27T15:11:16.873Z,82.25
2022-12-27T15:13:48.834Z,82.07
2022-12-27T15:16:17.134Z,83.47
2022-12-27T15:19:22.825Z,84.03
2022-12-27T15:22:20.646Z,94.65
2022-12-27T15:25:16.803Z,87.93
2022-12-27T15:28:10.641Z,91.55
2022-12-27T15:31:01.619Z,85.65
2022-12-27T15:33:41.927Z,88.55
2022-12-27T15:36:21.943Z,89.78
2022-12-27T15:38:54.691Z,92.78
2022-12-27T15:41:33.651Z,86.35
2022-12-27T15:44:19.729Z,81.43
2022-12-27T15:46:50.946Z,112.40
2022-12-27T15:49:33.966Z,90.25
2022-12-27T15:52:22.277Z,88.03
2022-12-27T15:55:24.958Z,95.38
2022-12-27T15:58:18.674Z,87.75
2022-12-27T16:01:26.207Z,89.95
2022-12-27T16:03:55.396Z,89.63
2022-12-27T16:06:35.199Z,93.82
2022-12-27T16:09:34.046Z,79.32
2022-12-27T16:12:11.368Z,81.97
2022-12-27T16:14:42.380Z,89.60
2022-12-27T16:17:18.908Z,94.78
2022-12-27T16:19:50.813Z,88.07
2022-12-27T16:22:35.901Z,87.70
2022-12-27T16:25:31.446Z,85.75
2022-12-27T16:28:23.986Z,89.15
2022-12-27T16:30:55.771Z,103.67
2022-12-27T16:33:26.388Z,97.35
2022-12-27T16:36:26.697Z,99.47
2022-12-27T16:39:12.677Z,97.70
2022-12-27T16:41:58.646Z,86.32
2022-12-27T16:44:26.484Z,88.43
2022-12-27T16:47:15.017Z,93.43
2022-12-27T16:50:00.628Z,90.50
2022-12-27T16:53:09.067Z,86.20
2022-12-27T16:56:00.282Z,95.45
2022-12-27T16:58:31.313Z,103.15
2022-12-27T17:01:01.492Z,82.60
2022-12-27T17:03:35.631Z,96.32
2022-12-27T17:06:32.995Z,98.07
2022-12-27T17:09:21.894Z,94.13
2022-12-27T17:11:52.803Z,106.65
2022-12-27T17:14:31.894Z,102.25
2022-12-27T17:17:22.752Z,100.35
2022-12-27T17:20:05.411Z,101.72
2022-12-27T17:22:36.596Z,98.25
2022-12-27T17:25:05.319Z,100.50
2022-12-27T17:27:57.056Z,112.53
2022-12-27T17:30:55.778Z,102.28
2022-12-27T17:33:29.254Z,92.88
2022-12-27T17:36:40.220Z,104.13
2022-12-27T17:39:20.486Z,101.03
2022-12-27T17:42:35.302Z,98.25
2022-12-27T17:45:31.478Z,111.55
2022-12-27T17:48:29.825Z,121.72
2022-12-27T17:51:05.157Z,108.47
2022-12-27T17:53:52.657Z,105.65
2022-12-27T17:56:42.817Z,108.32
2022-12-27T17:59:15.394Z,114.60
2022-12-27T18:01:43.453Z,115.32
2022-12-27T18:04:25.692Z,120.00
2022-12-27T18:06:56.361Z,113.45
2022-12-27T18:09:49.663Z,124.90
2022-12-27T18:12:53.108Z,111.70
2022-12-27T18:15:25.498Z,98.47
2022-12-27T18:18:00.179Z,103.93
2022-12-27T18:20:31.421Z,112.78
2022-12-27T18:23:01.034Z,106.15
2022-12-27T18:25:33.438Z,112.68
2022-12-27T18:28:34.573Z,112.40
2022-12-27T18:31:17.487Z,104.43
2022-12-27T18:33:53.983Z,103.93
2022-12-27T18:36:30.632Z,110.38
2022-12-27T18:38:59.206Z,115.28
2022-12-27T18:41:46.624Z,117.47
2022-12-27T18:44:27.637Z,109.32
2022-12-27T18:47:00.495Z,119.97
2022-12-27T18:49:36.119Z,104.55
2022-12-27T18:52:21.262Z,113.32
2022-12-27T18:54:49.476Z,109.93
2022-12-27T18:57:37.327Z,112.93
2022-12-27T19:00:25.885Z,111.68
2022-12-27T19:03:11.594Z,107.60
2022-12-27T19:05:40.414Z,101.93
2022-12-27T19:08:20.338Z,109.85
2022-12-27T19:10:50.917Z,114.45
2022-12-27T19:13:50.027Z,104.15
2022-12-27T19:16:26.003Z,110.28
2022-12-27T19:18:58.659Z,109.38
2022-12-27T19:21:34.163Z,107.18
2022-12-27T19:24:30.669Z,101.63
2022-12-27T19:27:02.197Z,112.88
2022-12-27T19:29:37.907Z,117.47
2022-12-27T19:32:10.680Z,115.05
2022-12-27T19:34:48.307Z,112.78
2022-12-27T19:37:16.683Z,106.60
2022-12-27T19:39:48.023Z,124.10
2022-12-27T19:42:22.736Z,120.38
2022-12-27T19:44:52.326Z,114.95
2022-12-27T19:47:20.278Z,114.32
2022-12-27T19:49:49.786Z,114.97
2022-12-27T19:52:27.199Z,104.45
2022-12-27T19:55:07.962Z,122.97
2022-12-27T19:57:36.101Z,109.45
2022-12-27T20:00:12.068Z,107.97
2022-12-27T20:02:44.889Z,107.40
2022-12-27T20:07:42.410Z,113.40
2022-12-27T20:10:15.507Z,111.47
2022-12-27T20:12:43.463Z,104.80
2022-12-27T20:15:11.859Z,121.75
2022-12-27T20:17:44.614Z,125.43
2022-12-27T20:20:14.633Z,120.20
2022-12-27T20:22:42.544Z,113.80
2022-12-27T20:25:10.987Z,117.43
2022-12-27T20:27:38.978Z,107.50
2022-12-27T20:30:08.951Z,109.30
2022-12-27T20:32:36.961Z,106.55
2022-12-27T20:35:05.793Z,113.32
2022-12-27T20:37:33.787Z,115.05
2022-12-27T20:40:02.040Z,109.38
2022-12-27T20:42:30.035Z,113.15
2022-12-27T20:44:58.343Z,111.88
2022-12-27T20:47:26.294Z,113.10
2022-12-27T20:49:55.567Z,126.00
2022-12-27T20:52:28.947Z,118.72
2022-12-27T20:54:59.382Z,110.65
2022-12-27T20:57:28.174Z,117.22
2022-12-27T20:59:56.393Z,110.38
2022-12-27T21:02:24.455Z,114.13
2022-12-27T21:04:52.889Z,109.50
2022-12-27T21:07:21.215Z,109.40
2022-12-27T21:09:49.495Z,108.43
2022-12-27T21:12:17.862Z,107.63
2022-12-27T21:14:46.343Z,103.80
2022-12-27T21:17:14.544Z,108.40
2022-12-27T21:19:42.943Z,98.75
2022-12-27T21:22:10.858Z,107.05
2022-12-27T21:24:39.255Z,98.82
2022-12-27T21:27:07.152Z,101.40
2022-12-27T21:29:35.342Z,109.00
2022-12-27T21:32:03.359Z,101.22
2022-12-27T21:34:32.323Z,110.25
2022-12-27T21:37:06.373Z,95.78
2022-12-27T21:39:39.411Z,100.70
2022-12-27T21:42:07.396Z,106.10
2022-12-27T21:44:37.103Z,102.45
2022-12-27T21:47:06.426Z,101.05
2022-12-27T21:49:35.215Z,97.65
2022-12-27T21:52:03.255Z,99.13
2022-12-27T21:54:31.564Z,90.97
2022-12-27T21:56:59.529Z,100.22
2022-12-27T21:59:27.846Z,95.28
2022-12-27T22:01:55.847Z,89.47
2022-12-27T22:04:24.260Z,90.65
2022-12-27T22:06:52.292Z,83.82
2022-12-27T22:09:20.624Z,77.95
2022-12-27T22:11:49.358Z,91.43
2022-12-27T22:14:21.808Z,87.90
2022-12-27T22:16:53.399Z,85.25
2022-12-27T22:19:21.870Z,82.15
2022-12-27T22:21:50.447Z,71.82
2022-12-27T22:24:20.297Z,86.60
2022-12-27T22:26:50.305Z,74.22
2022-12-27T22:29:19.153Z,71.47
2022-12-27T22:31:47.147Z,70.10
2022-12-27T22:34:15.003Z,71.43
2022-12-27T22:36:43.415Z,71.13
2022-12-27T22:39:11.651Z,75.63
2022-12-27T22:41:40.123Z,76.32
2022-12-27T22:44:12.656Z,70.60
2022-12-27T22:47:25.138Z,73.82
2022-12-27T22:49:31.690Z,68.65
2022-12-27T22:52:00.058Z,75.18
2022-12-27T22:55:03.349Z,69.85
2022-12-27T22:57:16.383Z,73.03
2022-12-27T22:59:44.353Z,66.18
2022-12-27T23:02:14.099Z,66.38
2022-12-27T23:04:42.300Z,57.95
2022-12-27T23:07:11.905Z,58.85
2022-12-27T23:09:43.476Z,56.15
2022-12-27T23:12:13.056Z,47.03
2022-12-27T23:14:41.369Z,57.35
2022-12-27T23:17:09.953Z,50.67
2022-12-27T23:19:38.000Z,43.67
2022-12-27T23:22:07.508Z,40.65
2022-12-27T23:24:35.475Z,39.05
2022-12-27T23:27:03.835Z,42.92
2022-12-27T23:29:31.820Z,40.08
2022-12-27T23:32:00.253Z,38.33
2022-12-27T23:34:29.298Z,38.15
2022-12-27T23:36:59.119Z,45.47
2022-12-27T23:39:27.794Z,37.55
2022-12-27T23:41:56.271Z,35.15
2022-12-27T23:44:32.876Z,37.70
2022-12-27T23:47:06.382Z,30.58
2022-12-27T23:49:35.569Z,33.22
2022-12-27T23:52:03.973Z,34.08
2022-12-27T23:54:32.038Z,34.97
2022-12-27T23:57:20.291Z,32.42
2022-12-27T23:59:49.632Z,33.58
